»·PEaware :: SWA1070 KLAS-KSNA

SWA1070 :: KLAS-KSNA

FLIGHT INFORMATION

Flight Status: Arrived
Operator:
Southwest Airlines
More flights by this operator :: More flights under this callsign
Pilot: Jordan D. (28603)
Aircraft: BOEING 737-800
(B738)
More flights by this aircraft type
Origin: KLAS Harry Reid Intl
United States
Destination: KSNA John Wayne-Orange Co
United States
More flights between these airports :: More routes between these airports
Route: RADYR2 SLVRR FEYLA DSNEE4
File this flight plan on PilotEdge
Remarks: RMK / SIMBRIEF
Altitude:
(Current/Filed)
28,000ft
Speed:
(Current/Filed)
454kts
Departed: 26-Sep-21 07:08 PM
Arrived: 26-Sep-21 07:47 PM
Distance/Time
Traveled:
196nm/0:39
Distance/Time
To Go:
Arrived

Flight Plot

Page will automatically refresh every two minutes.

Flight plan parsing failed; only flown route is shown


Map Options




Map Legend


Flown Route
Filed Route
Departure Airport
Arrival Airport
Navaid (VOR, NDB)
Fix

Horizontal Profiles

Position Reports

Time Latitude Longitude Heading Altitude Ground
Speed
26-Sep-21 18:49 36.079756 -115.145805 335 2189ft 0kts
26-Sep-21 18:50 36.079756 -115.145805 335 2189ft 0kts
26-Sep-21 18:51 36.079756 -115.145805 335 2189ft 0kts
26-Sep-21 18:52 36.079756 -115.145805 335 2189ft 0kts
26-Sep-21 18:52 36.079756 -115.145805 335 2189ft 0kts
26-Sep-21 18:54 36.079756 -115.145805 335 2189ft 0kts
26-Sep-21 18:55 36.079756 -115.145805 335 2189ft 0kts
26-Sep-21 18:56 36.079756 -115.145805 335 2189ft 0kts
26-Sep-21 18:56 36.079737 -115.145795 335 2189ft 1kts
26-Sep-21 18:57 36.079422 -115.145101 236 2189ft 2kts
26-Sep-21 18:59 36.079724 -115.144848 179 2189ft 0kts
26-Sep-21 19:00 36.079724 -115.144848 179 2189ft 0kts
26-Sep-21 19:00 36.079724 -115.144848 179 2189ft 0kts
26-Sep-21 19:01 36.079724 -115.144848 179 2189ft 0kts
26-Sep-21 19:03 36.079302 -115.144843 179 2189ft 11kts
26-Sep-21 19:03 36.078311 -115.139381 91 2189ft 30kts
26-Sep-21 19:04 36.078277 -115.131638 89 2189ft 20kts
26-Sep-21 19:05 36.078272 -115.125262 90 2189ft 23kts
26-Sep-21 19:06 36.076420 -115.122791 269 2189ft 18kts
26-Sep-21 19:07 36.077031 -115.161490 273 3093ft 174kts
26-Sep-21 19:08 36.074219 -115.224363 258 5424ft 253kts
26-Sep-21 19:09 36.020699 -115.280849 203 8038ft 288kts
26-Sep-21 19:10 35.942626 -115.306781 190 10078ft 294kts
26-Sep-21 19:11 35.855609 -115.327691 189 12796ft 357kts
26-Sep-21 19:12 35.756522 -115.351869 189 16140ft 379kts
26-Sep-21 19:13 35.652334 -115.377305 189 19190ft 399kts
26-Sep-21 19:14 35.560510 -115.451209 227 22401ft 412kts
26-Sep-21 19:15 35.482702 -115.558444 227 24901ft 430kts
26-Sep-21 19:16 35.400736 -115.668401 227 27374ft 440kts
26-Sep-21 19:17 35.314644 -115.783805 228 27984ft 476kts
26-Sep-21 19:18 35.222392 -115.907145 227 27989ft 504kts
26-Sep-21 19:19 35.124564 -116.030126 226 27994ft 505kts
26-Sep-21 19:20 35.027000 -116.153317 226 27994ft 506kts
26-Sep-21 19:21 34.928781 -116.276149 226 28006ft 506kts
26-Sep-21 19:22 34.836103 -116.393314 227 28007ft 461kts
26-Sep-21 19:23 34.750085 -116.502674 227 26265ft 438kts
26-Sep-21 19:24 34.664145 -116.604581 218 24644ft 429kts
26-Sep-21 19:25 34.571826 -116.693671 218 22502ft 417kts
26-Sep-21 19:26 34.484135 -116.781098 223 20518ft 401kts
26-Sep-21 19:27 34.405783 -116.873891 223 18568ft 387kts
26-Sep-21 19:28 34.329289 -116.962447 223 16618ft 375kts
26-Sep-21 19:29 34.252692 -117.044714 212 14800ft 361kts
26-Sep-21 19:30 34.167359 -117.104996 207 12957ft 351kts
26-Sep-21 19:31 34.080103 -117.151569 202 11892ft 333kts
26-Sep-21 19:32 33.996155 -117.200462 215 11906ft 338kts
26-Sep-21 19:33 33.936345 -117.280243 230 10530ft 306kts
26-Sep-21 19:34 33.882847 -117.356066 230 9451ft 290kts
26-Sep-21 19:35 33.831490 -117.428462 230 8299ft 277kts
26-Sep-21 19:36 33.799213 -117.506586 254 7593ft 249kts
26-Sep-21 19:37 33.795670 -117.589958 271 6187ft 253kts
26-Sep-21 19:38 33.814676 -117.659789 311 5818ft 210kts
26-Sep-21 19:39 33.853699 -117.711624 311 5357ft 203kts
26-Sep-21 19:40 33.878699 -117.767768 248 4879ft 195kts
26-Sep-21 19:41 33.834489 -117.773298 167 3350ft 172kts
26-Sep-21 19:42 33.792694 -117.794457 208 2481ft 171kts
26-Sep-21 19:43 33.752897 -117.819872 208 1602ft 143kts
26-Sep-21 19:44 33.719214 -117.841250 208 890ft 134kts
26-Sep-21 19:45 33.686422 -117.862059 209 181ft 132kts
26-Sep-21 19:46 33.670465 -117.872045 191 64ft 3kts
26-Sep-21 19:47 33.672871 -117.867557 51 64ft 26kts
26-Sep-21 19:48 33.678213 -117.863885 42 64ft 1kts
26-Sep-21 19:49 33.677108 -117.864541 195 64ft 2kts
26-Sep-21 19:50 33.676797 -117.863921 117 64ft 2kts
26-Sep-21 19:51 33.676796 -117.863919 117 64ft 0kts
26-Sep-21 19:52 33.676796 -117.863919 117 64ft 0kts
26-Sep-21 19:53 33.676796 -117.863919 117 64ft 0kts

Navigation Log

Ident Type
Flight plan parsing failed, navigation log unavailable